createdAt,value
2019-01-25T00:00:48.205Z,-4.00
2019-01-25T00:03:17.465Z,-4.00
2019-01-25T00:05:46.739Z,-4.00
2019-01-25T00:08:16.010Z,-4.00
2019-01-25T00:10:45.280Z,-3.90
2019-01-25T00:13:15.644Z,-3.90
2019-01-25T00:15:44.902Z,-3.90
2019-01-25T00:18:14.190Z,-3.80
2019-01-25T00:20:43.447Z,-3.90
2019-01-25T00:23:12.738Z,-3.90
2019-01-25T00:25:41.994Z,-4.00
2019-01-25T00:28:11.349Z,-4.00
2019-01-25T00:30:40.611Z,-4.00
2019-01-25T00:33:09.883Z,-4.00
2019-01-25T00:35:39.149Z,-4.00
2019-01-25T00:38:08.444Z,-4.10
2019-01-25T00:40:37.693Z,-4.00
2019-01-25T00:43:06.902Z,-4.10
2019-01-25T00:45:36.163Z,-4.00
2019-01-25T00:48:05.454Z,-4.00
2019-01-25T00:50:34.717Z,-4.00
2019-01-25T00:53:04.255Z,-4.00
2019-01-25T00:55:33.511Z,-4.00
2019-01-25T00:58:02.793Z,-4.00
2019-01-25T01:00:32.063Z,-4.00
2019-01-25T01:03:01.360Z,-4.00
2019-01-25T01:05:30.619Z,-4.00
2019-01-25T01:07:59.894Z,-4.10
2019-01-25T01:10:29.154Z,-4.00
2019-01-25T01:12:58.431Z,-4.00
2019-01-25T01:15:27.694Z,-3.90
2019-01-25T01:17:56.902Z,-4.00
2019-01-25T01:20:26.164Z,-4.00
2019-01-25T01:22:55.447Z,-4.00
2019-01-25T01:25:24.708Z,-4.00
2019-01-25T01:27:53.987Z,-4.00
2019-01-25T01:30:23.518Z,-4.00
2019-01-25T01:32:52.802Z,-4.00
2019-01-25T01:35:22.143Z,-4.00
2019-01-25T01:37:53.046Z,-4.00
2019-01-25T01:40:23.651Z,-4.00
2019-01-25T01:42:53.116Z,-4.10
2019-01-25T01:45:22.377Z,-4.10
2019-01-25T01:47:51.686Z,-4.10
2019-01-25T01:50:20.945Z,-4.10
2019-01-25T01:52:50.208Z,-4.10
2019-01-25T01:55:19.490Z,-4.00
2019-01-25T01:57:49.827Z,-4.00
2019-01-25T02:00:21.450Z,-4.00
2019-01-25T02:02:50.641Z,-4.10
2019-01-25T02:05:19.851Z,-4.10
2019-01-25T02:07:49.122Z,-4.00
2019-01-25T02:10:29.323Z,-4.00
2019-01-25T02:12:56.062Z,-4.00
2019-01-25T02:15:25.342Z,-4.00
2019-01-25T02:17:54.600Z,-4.00
2019-01-25T02:20:26.121Z,-4.00
2019-01-25T02:22:56.168Z,-4.00
2019-01-25T02:25:25.438Z,-4.10
2019-01-25T02:27:54.690Z,-4.20
2019-01-25T02:30:25.231Z,-4.10
2019-01-25T02:32:55.475Z,-4.10
2019-01-25T02:35:24.812Z,-4.10
2019-01-25T02:37:54.074Z,-4.10
2019-01-25T02:40:23.999Z,-4.10
2019-01-25T02:42:53.252Z,-4.20
2019-01-25T02:45:22.537Z,-4.20
2019-01-25T02:47:52.885Z,-4.20
2019-01-25T02:50:22.148Z,-4.20
2019-01-25T02:52:51.400Z,-4.20
2019-01-25T02:55:20.687Z,-4.20
2019-01-25T02:57:49.944Z,-4.20
2019-01-25T03:00:23.663Z,-4.20
2019-01-25T03:02:53.458Z,-4.30
2019-01-25T03:05:23.315Z,-4.20
2019-01-25T03:07:52.531Z,-4.20
2019-01-25T03:10:28.435Z,-4.20
2019-01-25T03:12:53.258Z,-4.20
2019-01-25T03:15:24.098Z,-4.10
2019-01-25T03:17:53.525Z,-4.10
2019-01-25T03:20:22.797Z,-4.10
2019-01-25T03:22:52.129Z,-4.10
2019-01-25T03:25:25.757Z,-4.10
2019-01-25T03:27:55.106Z,-4.10
2019-01-25T03:30:25.614Z,-4.10
2019-01-25T03:32:54.965Z,-4.10
2019-01-25T03:35:25.095Z,-4.10
2019-01-25T03:37:54.420Z,-4.10
2019-01-25T03:40:27.590Z,-4.10
2019-01-25T03:42:56.839Z,-4.10
2019-01-25T03:45:26.258Z,-4.20
2019-01-25T03:47:56.420Z,-4.20
2019-01-25T03:50:27.444Z,-4.20
2019-01-25T03:52:56.695Z,-4.20
2019-01-25T03:55:26.047Z,-4.10
2019-01-25T03:57:55.315Z,-4.10
2019-01-25T04:00:27.865Z,-4.20
2019-01-25T04:02:57.175Z,-4.30
2019-01-25T04:05:26.453Z,-4.30
2019-01-25T04:07:55.645Z,-4.30
2019-01-25T04:10:27.236Z,-4.40
2019-01-25T04:12:56.487Z,-4.40
2019-01-25T04:15:31.341Z,-4.30
2019-01-25T04:18:00.603Z,-4.30
2019-01-25T04:20:29.886Z,-4.30
2019-01-25T04:22:59.147Z,-4.20
2019-01-25T04:25:29.500Z,-4.20
2019-01-25T04:27:58.753Z,-4.20
2019-01-25T04:30:29.774Z,-4.20
2019-01-25T04:32:59.026Z,-4.20
2019-01-25T04:35:28.302Z,-4.20
2019-01-25T04:37:57.481Z,-4.20
2019-01-25T04:40:26.776Z,-4.20
2019-01-25T04:42:56.018Z,-4.20
2019-01-25T04:45:25.296Z,-4.30
2019-01-25T04:47:54.554Z,-4.20
2019-01-25T04:50:24.674Z,-4.20
2019-01-25T04:52:54.004Z,-4.20
2019-01-25T04:55:27.904Z,-4.20
2019-01-25T04:58:06.263Z,-4.20
2019-01-25T05:00:35.542Z,-4.20
2019-01-25T05:03:05.054Z,-4.20
2019-01-25T05:05:34.361Z,-4.20
2019-01-25T05:08:06.914Z,-4.20
2019-01-25T05:10:36.201Z,-4.20
2019-01-25T05:13:05.452Z,-4.10
2019-01-25T05:15:34.727Z,-4.20
2019-01-25T05:18:04.075Z,-4.20
2019-01-25T05:20:33.327Z,-4.20
2019-01-25T05:23:03.646Z,-4.10
2019-01-25T05:25:32.897Z,-4.10
2019-01-25T05:28:13.983Z,-4.10
2019-01-25T05:30:51.633Z,-4.10
2019-01-25T05:33:20.815Z,-4.10
2019-01-25T05:35:50.040Z,-4.10
2019-01-25T05:38:19.294Z,-4.10
2019-01-25T05:40:48.477Z,-4.00
2019-01-25T05:43:17.766Z,-4.10
2019-01-25T05:45:47.030Z,-4.10
2019-01-25T05:48:16.313Z,-4.10
2019-01-25T05:50:45.579Z,-4.10
2019-01-25T05:53:14.854Z,-4.10
2019-01-25T05:55:44.103Z,-4.10
2019-01-25T05:58:13.308Z,-4.10
2019-01-25T06:00:44.430Z,-4.10
2019-01-25T06:03:15.290Z,-4.10
2019-01-25T06:05:44.542Z,-4.00
2019-01-25T06:08:31.190Z,-4.00
2019-01-25T06:11:02.878Z,-4.10
2019-01-25T06:13:32.163Z,-4.00
2019-01-25T06:16:01.411Z,-4.00
2019-01-25T06:18:30.694Z,-4.00
2019-01-25T06:21:00.007Z,-4.00
2019-01-25T06:23:29.295Z,-4.00
2019-01-25T06:25:59.477Z,-4.00
2019-01-25T06:28:28.688Z,-4.00
2019-01-25T06:30:57.948Z,-4.00
2019-01-25T06:33:27.233Z,-4.00
2019-01-25T06:35:56.486Z,-4.00
2019-01-25T06:38:25.763Z,-4.00
2019-01-25T06:40:55.017Z,-4.00
2019-01-25T06:43:24.213Z,-3.90
2019-01-25T06:45:53.490Z,-3.90
2019-01-25T06:48:22.745Z,-4.00
2019-01-25T06:50:52.098Z,-4.00
2019-01-25T06:53:21.298Z,-4.00
2019-01-25T06:55:50.482Z,-3.90
2019-01-25T06:58:36.690Z,-3.90
2019-01-25T07:01:25.927Z,-3.90
2019-01-25T07:03:55.207Z,-3.80
2019-01-25T07:06:24.467Z,-3.90
2019-01-25T07:08:53.755Z,-3.90
2019-01-25T07:11:23.014Z,-3.90
2019-01-25T07:13:53.357Z,-3.80
2019-01-25T07:16:22.527Z,-3.80
2019-01-25T07:18:51.736Z,-3.90
2019-01-25T07:21:21.009Z,-3.90
2019-01-25T07:23:50.296Z,-3.80
2019-01-25T07:26:19.552Z,-3.80
2019-01-25T07:28:48.827Z,-3.90
2019-01-25T07:31:18.088Z,-3.80
2019-01-25T07:33:47.370Z,-3.80
2019-01-25T07:36:16.628Z,-3.80
2019-01-25T07:38:45.912Z,-3.80
2019-01-25T07:41:15.182Z,-3.80
2019-01-25T07:43:44.454Z,-3.80
2019-01-25T07:46:13.709Z,-3.90
2019-01-25T07:48:43.009Z,-3.80
2019-01-25T07:51:12.239Z,-3.80
2019-01-25T07:53:41.516Z,-3.80
2019-01-25T07:56:10.796Z,-3.80
2019-01-25T07:58:40.061Z,-3.80
2019-01-25T08:01:09.351Z,-3.80
2019-01-25T08:03:38.626Z,-3.80
2019-01-25T08:06:07.888Z,-3.80
2019-01-25T08:08:37.180Z,-3.80
2019-01-25T08:11:06.423Z,-3.70
2019-01-25T08:13:35.705Z,-3.70
2019-01-25T08:16:04.951Z,-3.70
2019-01-25T08:18:34.255Z,-3.70
2019-01-25T08:21:03.487Z,-3.60
2019-01-25T08:23:32.766Z,-3.60
2019-01-25T08:26:02.030Z,-3.50
2019-01-25T08:28:31.309Z,-3.50
2019-01-25T08:31:00.571Z,-3.50
2019-01-25T08:33:29.830Z,-3.50
2019-01-25T08:36:00.093Z,-3.50
2019-01-25T08:38:29.364Z,-3.50
2019-01-25T08:40:58.650Z,-3.50
2019-01-25T08:43:27.903Z,-3.50
2019-01-25T08:45:57.203Z,-3.50
2019-01-25T08:48:26.473Z,-3.60
2019-01-25T08:50:55.726Z,-3.60
2019-01-25T08:53:24.930Z,-3.50
2019-01-25T08:55:54.194Z,-3.50
2019-01-25T08:58:23.472Z,-3.50
2019-01-25T09:00:52.722Z,-3.50
2019-01-25T09:03:21.971Z,-3.50
2019-01-25T09:05:51.250Z,-3.50
2019-01-25T09:08:20.517Z,-3.50
2019-01-25T09:10:49.799Z,-3.50
2019-01-25T09:13:19.052Z,-3.60
2019-01-25T09:15:48.338Z,-3.60
2019-01-25T09:18:17.591Z,-3.60
2019-01-25T09:20:46.867Z,-3.40
2019-01-25T09:23:16.123Z,-3.40
2019-01-25T09:25:45.389Z,-3.40
2019-01-25T09:28:14.578Z,-3.40
2019-01-25T09:30:43.849Z,-3.30
2019-01-25T09:33:13.035Z,-3.30
2019-01-25T09:35:42.391Z,-3.20
2019-01-25T09:38:11.706Z,-3.20
2019-01-25T09:40:40.990Z,-3.20
2019-01-25T09:43:10.314Z,-3.30
2019-01-25T09:45:39.601Z,-3.10
2019-01-25T09:48:09.214Z,-3.10
2019-01-25T09:50:38.491Z,-3.00
2019-01-25T09:53:07.741Z,-3.00
2019-01-25T09:55:36.951Z,-3.00
2019-01-25T09:58:15.180Z,-3.00
2019-01-25T10:00:53.873Z,-3.10
2019-01-25T10:03:23.110Z,-3.10
2019-01-25T10:05:52.322Z,-2.90
2019-01-25T10:08:21.572Z,-2.80
2019-01-25T10:10:50.850Z,-3.10
2019-01-25T10:13:20.101Z,-3.00
2019-01-25T10:15:49.306Z,-3.00
2019-01-25T10:18:18.565Z,-2.90
2019-01-25T10:20:47.843Z,-3.00
2019-01-25T10:23:17.100Z,-2.90
2019-01-25T10:25:46.382Z,-3.10
2019-01-25T10:28:15.638Z,-3.00
2019-01-25T10:30:44.839Z,-3.00
2019-01-25T10:33:14.096Z,-3.10
2019-01-25T10:35:43.374Z,-3.10
2019-01-25T10:38:12.628Z,-2.80
2019-01-25T10:40:41.924Z,-2.60
2019-01-25T10:43:11.178Z,-2.50
2019-01-25T10:45:43.040Z,-2.50
2019-01-25T10:48:12.338Z,-2.40
2019-01-25T10:50:41.592Z,-2.40
2019-01-25T10:53:10.873Z,-2.50
2019-01-25T10:55:40.121Z,-2.20
2019-01-25T10:58:09.402Z,-2.00
2019-01-25T11:00:38.649Z,-2.00
2019-01-25T11:03:07.935Z,-2.00
2019-01-25T11:05:37.178Z,-2.20
2019-01-25T11:08:06.451Z,-2.20
2019-01-25T11:10:35.737Z,-2.10
2019-01-25T11:13:04.947Z,-2.10
2019-01-25T11:15:34.207Z,-2.30
2019-01-25T11:18:03.487Z,-2.50
2019-01-25T11:20:32.741Z,-2.40
2019-01-25T11:23:03.210Z,-2.30
2019-01-25T11:25:37.834Z,-2.10
2019-01-25T11:28:07.107Z,-2.10
2019-01-25T11:30:36.290Z,-2.20
2019-01-25T11:33:05.833Z,-2.40
2019-01-25T11:35:35.087Z,-2.60
2019-01-25T11:38:04.365Z,-2.50
2019-01-25T11:40:39.236Z,-2.30
2019-01-25T11:43:09.246Z,-2.30
2019-01-25T11:45:38.733Z,-2.20
2019-01-25T11:48:10.602Z,-2.30
2019-01-25T11:50:39.840Z,-2.30
2019-01-25T11:53:09.124Z,-2.10
2019-01-25T11:55:39.450Z,-2.10
2019-01-25T11:58:08.794Z,-1.80
2019-01-25T12:00:39.682Z,-2.00
2019-01-25T12:03:08.961Z,-1.90
2019-01-25T12:05:38.215Z,-1.90
2019-01-25T12:08:07.497Z,-1.70
2019-01-25T12:10:36.755Z,-1.60
2019-01-25T12:13:06.047Z,-1.50
2019-01-25T12:15:35.299Z,-1.50
2019-01-25T12:18:05.011Z,-1.60
2019-01-25T12:20:34.267Z,-1.90
2019-01-25T12:23:03.543Z,-2.00
2019-01-25T12:25:32.798Z,-1.90
2019-01-25T12:28:05.301Z,-1.80
2019-01-25T12:30:38.587Z,-1.80
2019-01-25T12:33:08.203Z,-1.90
2019-01-25T12:35:39.394Z,-1.90
2019-01-25T12:38:08.606Z,-1.80
2019-01-25T12:40:41.995Z,-1.90
2019-01-25T12:43:08.764Z,-1.90
2019-01-25T12:45:38.022Z,-1.90
2019-01-25T12:48:07.307Z,-1.90
2019-01-25T12:50:39.875Z,-1.80
2019-01-25T12:53:11.773Z,-1.80
2019-01-25T12:55:41.042Z,-1.80
2019-01-25T12:58:11.405Z,-1.80
2019-01-25T13:00:41.693Z,-1.90
2019-01-25T13:03:11.712Z,-1.70
2019-01-25T13:05:41.067Z,-1.70
2019-01-25T13:08:10.319Z,-1.80
2019-01-25T13:10:39.600Z,-1.80
2019-01-25T13:13:08.875Z,-1.80
2019-01-25T13:15:38.169Z,-1.70
2019-01-25T13:18:07.442Z,-1.70
2019-01-25T13:20:39.478Z,-1.70
2019-01-25T13:23:07.530Z,-1.70
2019-01-25T13:25:36.810Z,-1.80
2019-01-25T13:28:06.071Z,-1.70
2019-01-25T13:30:36.327Z,-1.60
2019-01-25T13:33:05.857Z,-1.70
2019-01-25T13:35:35.138Z,-1.70
2019-01-25T13:38:04.400Z,-1.70
2019-01-25T13:40:33.679Z,-1.70
2019-01-25T13:43:02.930Z,-1.80
2019-01-25T13:45:32.201Z,-1.60
2019-01-25T13:48:01.462Z,-1.60
2019-01-25T13:50:31.002Z,-1.60
2019-01-25T13:53:00.186Z,-1.60
2019-01-25T13:55:29.473Z,-1.60
2019-01-25T13:57:58.721Z,-1.60
2019-01-25T14:00:29.959Z,-1.70
2019-01-25T14:02:59.218Z,-1.70
2019-01-25T14:05:28.495Z,-1.60
2019-01-25T14:07:58.132Z,-1.80
2019-01-25T14:10:31.282Z,-1.70
2019-01-25T14:13:00.538Z,-1.70
2019-01-25T14:15:29.819Z,-1.60
2019-01-25T14:17:59.077Z,-1.60
2019-01-25T14:20:30.508Z,-1.60
2019-01-25T14:22:59.754Z,-1.40
2019-01-25T14:25:28.963Z,-1.50
2019-01-25T14:27:58.213Z,-1.40
2019-01-25T14:30:32.923Z,-1.50
2019-01-25T14:33:12.714Z,-1.50
2019-01-25T14:35:41.919Z,-1.50
2019-01-25T14:38:13.155Z,-1.50
2019-01-25T14:40:42.432Z,-1.50
2019-01-25T14:43:11.774Z,-1.60
2019-01-25T14:45:41.084Z,-1.60
2019-01-25T14:48:10.346Z,-1.60
2019-01-25T14:50:39.643Z,-1.60
2019-01-25T14:53:08.894Z,-1.60
2019-01-25T14:55:38.170Z,-1.60
2019-01-25T14:58:07.423Z,-1.60
2019-01-25T15:00:36.690Z,-1.40
2019-01-25T15:03:05.952Z,-1.40
2019-01-25T15:05:35.226Z,-1.50
2019-01-25T15:08:04.401Z,-1.40
2019-01-25T15:10:35.107Z,-1.40
2019-01-25T15:13:05.294Z,-1.50
2019-01-25T15:15:34.470Z,-1.50
2019-01-25T15:18:04.719Z,-1.50
2019-01-25T15:20:33.970Z,-1.50
2019-01-25T15:23:03.322Z,-1.50
2019-01-25T15:25:32.583Z,-1.50
2019-01-25T15:28:01.871Z,-1.40
2019-01-25T15:30:31.126Z,-1.50
2019-01-25T15:33:00.334Z,-1.40
2019-01-25T15:35:30.666Z,-1.40
2019-01-25T15:38:00.016Z,-1.40
2019-01-25T15:40:29.275Z,-1.40
2019-01-25T15:42:58.554Z,-1.40
2019-01-25T15:45:28.881Z,-1.30
2019-01-25T15:47:58.163Z,-1.30
2019-01-25T15:50:29.308Z,-1.30
2019-01-25T15:52:58.605Z,-1.30
2019-01-25T15:55:27.868Z,-1.30
2019-01-25T15:57:57.146Z,-1.30
2019-01-25T16:00:28.042Z,-1.30
2019-01-25T16:02:57.326Z,-1.20
2019-01-25T16:05:26.604Z,-1.20
2019-01-25T16:07:55.877Z,-1.20
2019-01-25T16:10:25.146Z,-1.20
2019-01-25T16:12:54.426Z,-1.10
2019-01-25T16:15:28.414Z,-1.10
2019-01-25T16:18:06.849Z,-1.10
2019-01-25T16:20:36.531Z,-1.10
2019-01-25T16:23:05.810Z,-1.10
2019-01-25T16:25:35.066Z,-1.00
2019-01-25T16:28:04.414Z,-1.00
2019-01-25T16:30:35.323Z,-1.00
2019-01-25T16:33:04.684Z,-1.00
2019-01-25T16:35:33.933Z,-1.00
2019-01-25T16:38:03.142Z,-0.90
2019-01-25T16:40:33.365Z,-0.90
2019-01-25T16:43:02.652Z,-0.80
2019-01-25T16:45:37.847Z,-0.80
2019-01-25T16:48:07.368Z,-0.80
2019-01-25T16:50:36.706Z,-0.80
2019-01-25T16:53:07.746Z,-0.80
2019-01-25T16:55:37.016Z,-0.70
2019-01-25T16:58:06.433Z,-0.70
2019-01-25T17:00:38.494Z,-0.70
2019-01-25T17:03:07.787Z,-0.70
2019-01-25T17:05:37.037Z,-0.70
2019-01-25T17:08:06.322Z,-0.70
2019-01-25T17:10:35.571Z,-0.70
2019-01-25T17:13:04.852Z,-0.60
2019-01-25T17:15:34.114Z,-0.60
2019-01-25T17:18:03.398Z,-0.60
2019-01-25T17:20:32.658Z,-0.60
2019-01-25T17:23:02.119Z,-0.60
2019-01-25T17:25:31.378Z,-0.60
2019-01-25T17:28:00.659Z,-0.60
2019-01-25T17:30:32.253Z,-0.60
2019-01-25T17:33:01.818Z,-0.60
2019-01-25T17:35:32.196Z,-0.60
2019-01-25T17:38:02.224Z,-0.50
2019-01-25T17:40:37.146Z,-0.50
2019-01-25T17:43:06.429Z,-0.50
2019-01-25T17:45:35.697Z,-0.50
2019-01-25T17:48:05.725Z,-0.40
2019-01-25T17:50:34.986Z,-0.40
2019-01-25T17:53:04.327Z,-0.40
2019-01-25T17:55:33.673Z,-0.40
2019-01-25T17:58:08.243Z,-0.40
2019-01-25T18:00:35.492Z,-0.40
2019-01-25T18:03:05.026Z,-0.40
2019-01-25T18:05:34.817Z,-0.30
2019-01-25T18:08:04.232Z,-0.30
2019-01-25T18:10:33.581Z,-0.30
2019-01-25T18:13:02.842Z,-0.20
2019-01-25T18:15:32.154Z,-0.20
2019-01-25T18:18:01.339Z,-0.20
2019-01-25T18:20:31.752Z,-0.20
2019-01-25T18:23:01.014Z,-0.20
2019-01-25T18:25:46.114Z,-0.20
2019-01-25T18:28:21.434Z,-0.10
2019-01-25T18:31:05.804Z,-0.10
2019-01-25T18:33:35.053Z,-0.10
2019-01-25T18:36:04.259Z,0.00
2019-01-25T18:38:33.508Z,0.00
2019-01-25T18:41:02.780Z,0.00
2019-01-25T18:43:32.031Z,0.00
2019-01-25T18:46:01.304Z,0.00
2019-01-25T18:48:30.568Z,0.00
2019-01-25T18:50:59.841Z,0.00
2019-01-25T18:53:29.013Z,0.00
2019-01-25T18:55:58.316Z,0.00
2019-01-25T18:58:27.594Z,0.00
2019-01-25T19:00:56.807Z,0.10
2019-01-25T19:03:26.041Z,0.10
2019-01-25T19:05:55.242Z,0.10
2019-01-25T19:08:24.496Z,0.10
2019-01-25T19:10:53.840Z,0.20
2019-01-25T19:13:24.157Z,0.20
2019-01-25T19:15:53.442Z,0.20
2019-01-25T19:18:22.626Z,0.20
2019-01-25T19:20:51.895Z,0.20
2019-01-25T19:23:21.142Z,0.30
2019-01-25T19:25:50.418Z,0.30
2019-01-25T19:28:19.671Z,0.30
2019-01-25T19:30:49.011Z,0.40
2019-01-25T19:33:18.259Z,0.40
2019-01-25T19:35:47.610Z,0.40
2019-01-25T19:38:16.867Z,0.50
2019-01-25T19:40:46.212Z,0.50
2019-01-25T19:43:15.459Z,0.50
2019-01-25T19:45:44.727Z,0.50
2019-01-25T19:48:14.047Z,0.50
2019-01-25T19:50:43.402Z,0.60
2019-01-25T19:53:12.683Z,0.60
2019-01-25T19:55:41.930Z,0.60
2019-01-25T19:58:13.649Z,0.70
2019-01-25T20:00:45.068Z,0.70
2019-01-25T20:03:14.409Z,0.70
2019-01-25T20:05:43.661Z,0.70
2019-01-25T20:08:12.931Z,0.80
2019-01-25T20:10:42.173Z,0.70
2019-01-25T20:13:12.011Z,0.80
2019-01-25T20:15:41.258Z,0.80
2019-01-25T20:18:10.535Z,0.80
2019-01-25T20:20:40.572Z,0.80
2019-01-25T20:23:09.806Z,0.80
2019-01-25T20:25:39.054Z,0.90
2019-01-25T20:28:09.576Z,0.90
2019-01-25T20:30:38.915Z,0.80
2019-01-25T20:33:08.246Z,0.80
2019-01-25T20:35:40.000Z,0.80
2019-01-25T20:38:09.275Z,0.80
2019-01-25T20:40:38.617Z,0.90
2019-01-25T20:43:07.869Z,0.90
2019-01-25T20:45:41.451Z,0.90
2019-01-25T20:48:10.751Z,0.90
2019-01-25T20:50:40.002Z,0.90
2019-01-25T20:53:11.912Z,0.90
2019-01-25T20:55:42.806Z,0.90
2019-01-25T20:58:12.109Z,0.90
2019-01-25T21:00:41.429Z,0.90
2019-01-25T21:03:13.369Z,0.90
2019-01-25T21:05:42.615Z,0.90
2019-01-25T21:08:11.889Z,1.00
2019-01-25T21:10:41.126Z,1.00
2019-01-25T21:13:10.332Z,1.00
2019-01-25T21:15:39.584Z,1.00
2019-01-25T21:18:08.864Z,1.00
2019-01-25T21:20:40.459Z,1.00
2019-01-25T21:23:09.738Z,1.00
2019-01-25T21:25:38.992Z,1.00
2019-01-25T21:28:08.268Z,1.10
2019-01-25T21:30:37.581Z,1.10
2019-01-25T21:33:06.846Z,1.10
2019-01-25T21:35:36.090Z,1.10
2019-01-25T21:38:05.506Z,1.10
2019-01-25T21:40:35.248Z,1.10
2019-01-25T21:43:04.862Z,1.10
2019-01-25T21:45:34.974Z,1.10
2019-01-25T21:48:06.084Z,1.10
2019-01-25T21:50:38.274Z,1.10
2019-01-25T21:53:07.477Z,1.10
2019-01-25T21:55:36.731Z,1.20
2019-01-25T21:58:06.190Z,1.20
2019-01-25T22:00:36.108Z,1.10
2019-01-25T22:03:05.720Z,1.10
2019-01-25T22:05:35.045Z,1.20
2019-01-25T22:08:04.383Z,1.20
2019-01-25T22:10:36.372Z,1.20
2019-01-25T22:13:05.593Z,1.20
2019-01-25T22:15:34.870Z,1.20
2019-01-25T22:18:04.126Z,1.20
2019-01-25T22:20:33.379Z,1.30
2019-01-25T22:23:02.694Z,1.30
2019-01-25T22:25:33.410Z,1.30
2019-01-25T22:28:02.695Z,1.40
2019-01-25T22:30:31.983Z,1.40
2019-01-25T22:33:01.239Z,1.40
2019-01-25T22:35:30.512Z,1.40
2019-01-25T22:37:59.760Z,1.40
2019-01-25T22:40:30.185Z,1.50
2019-01-25T22:42:59.454Z,1.40
2019-01-25T22:45:29.779Z,1.40
2019-01-25T22:47:59.898Z,1.40
2019-01-25T22:50:31.291Z,1.50
2019-01-25T22:53:00.499Z,1.50
2019-01-25T22:55:29.750Z,1.60
2019-01-25T22:57:59.025Z,1.60
2019-01-25T23:00:51.142Z,1.60
2019-01-25T23:03:24.282Z,1.70
2019-01-25T23:06:05.342Z,1.70
2019-01-25T23:08:34.615Z,1.70
2019-01-25T23:11:03.872Z,1.70
2019-01-25T23:13:33.147Z,1.70
2019-01-25T23:16:06.444Z,1.80
2019-01-25T23:18:34.363Z,1.80
2019-01-25T23:21:03.632Z,1.90
2019-01-25T23:23:32.916Z,2.00
2019-01-25T23:26:02.235Z,1.90
2019-01-25T23:28:31.486Z,1.90
2019-01-25T23:31:00.777Z,1.90
2019-01-25T23:33:30.015Z,1.90
2019-01-25T23:35:59.296Z,2.00
2019-01-25T23:38:28.539Z,2.00
2019-01-25T23:40:57.814Z,2.00
2019-01-25T23:43:27.067Z,2.00
2019-01-25T23:45:56.348Z,2.00
2019-01-25T23:48:25.595Z,2.00
2019-01-25T23:50:54.874Z,2.10
2019-01-25T23:53:24.139Z,2.10
2019-01-25T23:55:53.402Z,2.10
2019-01-25T23:58:22.652Z,2.10
